Time;durP1;ratioP1;P1;durP2;ratioP2;P2;SDS_P1;SDS_P2;PMS_P1;PMS_P2;Temp;Humidity;BMP_temperature;BMP_pressure;BME280_temperature;BME280_humidity;BME280_pressure;Samples;Min_cycle;Max_cycle;Signal;HPM_P1;HPM_P2
2021/05/10 00:01:20;;;;;;;;;;;16.10;74.90;;;;;;4981399;28;20049;-52
2021/05/10 00:03:46;;;;;;;2.17;1.60;;;16.00;75.10;;;;;;4983131;28;20465;-56
2021/05/10 00:06:12;;;;;;;5.00;1.63;;;16.10;75.70;;;;;;4991810;28;20048;-58
2021/05/10 00:08:37;;;;;;;;;;;16.00;75.30;;;;;;5002331;28;20125;-57
2021/05/10 00:11:03;;;;;;;2.72;1.10;;;16.00;74.90;;;;;;5000827;28;20424;-58
2021/05/10 00:13:29;;;;;;;;;;;16.10;74.70;;;;;;5002974;28;20074;-57
2021/05/10 00:15:54;;;;;;;3.47;0.80;;;16.10;76.00;;;;;;5001194;28;20009;-55
2021/05/10 00:18:20;;;;;;;;;;;16.00;74.60;;;;;;4991545;28;20054;-57
2021/05/10 00:20:47;;;;;;;3.97;1.60;;;16.00;74.80;;;;;;4988581;28;19917;-59
2021/05/10 00:23:14;;;;;;;4.75;1.23;;;16.00;75.40;;;;;;4989035;28;20458;-58
2021/05/10 00:25:41;;;;;;;3.30;1.30;;;15.90;74.70;;;;;;4987773;28;20406;-57
2021/05/10 00:28:07;;;;;;;7.63;1.50;;;15.90;75.20;;;;;;5004432;28;20045;-58
2021/05/10 00:30:33;;;;;;;;;;;15.80;75.20;;;;;;5007244;28;20048;-55
2021/05/10 00:32:59;;;;;;;2.42;0.90;;;15.80;75.00;;;;;;5008215;28;19918;-59
2021/05/10 00:35:25;;;;;;;;;;;15.80;74.50;;;;;;5008242;28;20469;-58
2021/05/10 00:37:51;;;;;;;7.30;1.47;;;15.80;75.90;;;;;;5008641;28;20016;-57
2021/05/10 00:40:20;;;;;;;4.78;1.10;;;15.80;76.80;;;;;;5007106;28;20045;-57
2021/05/10 00:42:46;;;;;;;4.40;1.42;;;15.70;78.70;;;;;;5007970;28;20054;-58
2021/05/10 00:45:12;;;;;;;;;;;15.70;77.50;;;;;;5007432;28;20579;-57
2021/05/10 00:47:38;;;;;;;11.37;3.07;;;15.70;77.70;;;;;;5007654;28;19929;-58
2021/05/10 00:50:05;;;;;;;;;;;15.70;78.70;;;;;;5008330;28;20045;-58
2021/05/10 00:52:30;;;;;;;5.07;1.00;;;15.60;79.00;;;;;;5006475;28;20046;-56
2021/05/10 00:54:56;;;;;;;;;;;15.60;78.40;;;;;;5007368;28;20128;-58
2021/05/10 00:57:23;;;;;;;3.28;1.02;;;15.50;79.70;;;;;;5006499;28;19919;-58
2021/05/10 00:59:50;;;;;;;3.90;1.00;;;15.40;79.80;;;;;;4997404;28;20594;-54
2021/05/10 01:02:17;;;;;;;5.57;1.30;;;15.40;78.90;;;;;;5011204;28;20440;-58
2021/05/10 01:04:43;;;;;;;1.50;1.05;;;15.30;79.70;;;;;;5023070;28;20042;-57
2021/05/10 01:07:08;;;;;;;7.45;1.83;;;15.30;81.30;;;;;;5013107;28;20038;-59
2021/05/10 01:09:34;;;;;;;;;;;15.30;80.70;;;;;;5014543;28;20691;-56
2021/05/10 01:12:00;;;;;;;3.55;1.05;;;15.30;79.60;;;;;;5018913;28;19920;-57
2021/05/10 01:14:25;;;;;;;;;;;15.30;78.30;;;;;;5027805;28;20068;-58
2021/05/10 01:16:51;;;;;;;4.57;1.40;;;15.40;78.20;;;;;;5008136;28;20292;-57
2021/05/10 01:19:17;;;;;;;;;;;15.30;79.70;;;;;;5007950;28;20049;-57
2021/05/10 01:21:45;;;;;;;5.82;1.83;;;15.30;78.90;;;;;;5007559;28;19917;-59
2021/05/10 01:24:11;;;;;;;5.43;1.42;;;15.30;79.60;;;;;;5006803;28;20140;-56
2021/05/10 01:26:37;;;;;;;1.23;1.00;;;15.10;81.40;;;;;;5007906;28;20046;-56
2021/05/10 01:29:03;;;;;;;;;;;15.00;83.20;;;;;;5006133;28;20161;-56
2021/05/10 01:31:28;;;;;;;2.55;1.25;;;15.00;83.40;;;;;;5028897;28;19916;-56
2021/05/10 01:33:54;;;;;;;;;;;14.90;83.00;;;;;;5047115;28;20064;-59
2021/05/10 01:36:19;;;;;;;6.45;1.50;;;14.90;83.30;;;;;;5032500;28;20769;-60
2021/05/10 01:38:45;;;;;;;;;;;14.90;83.30;;;;;;5030725;28;20037;-54
2021/05/10 01:41:11;;;;;;;6.55;1.15;;;14.90;83.30;;;;;;5041252;28;19924;-58
2021/05/10 01:43:36;;;;;;;;;;;14.90;82.80;;;;;;5027154;28;20045;-57
2021/05/10 01:46:02;;;;;;;3.78;1.25;;;14.90;83.80;;;;;;5024765;28;20381;-56
2021/05/10 01:48:27;;;;;;;;;;;14.90;84.60;;;;;;5026895;28;20075;-58
2021/05/10 01:50:53;;;;;;;4.40;1.27;;;14.90;83.70;;;;;;5031266;28;19919;-58
2021/05/10 01:53:18;;;;;;;;;;;14.90;84.60;;;;;;5046330;28;20477;-57
2021/05/10 01:55:44;;;;;;;2.30;1.23;;;15.00;84.50;;;;;;5045807;28;20004;-58
2021/05/10 01:58:10;;;;;;;;;;;14.90;83.20;;;;;;5040991;28;20428;-59
2021/05/10 02:00:39;;;;;;;4.88;1.23;;;14.90;85.00;;;;;;5042359;28;19999;-58
2021/05/10 02:03:11;;;;;;;5.40;1.52;;;14.80;85.60;;;;;;5046284;28;20052;-58
2021/05/10 02:05:37;;;;;;;2.88;1.60;;;14.80;85.50;;;;;;5044912;28;20144;-56
2021/05/10 02:08:04;;;;;;;;;;;14.70;86.10;;;;;;5047389;28;20112;-56
2021/05/10 02:10:38;;;;;;;5.50;1.58;;;14.60;85.80;;;;;;5045503;28;19912;-55
2021/05/10 02:13:11;;;;;;;4.68;1.50;;;14.60;86.00;;;;;;5046254;28;20698;-57
2021/05/10 02:15:39;;;;;;;6.35;1.80;;;14.70;86.70;;;;;;5044796;28;20124;-56
2021/05/10 02:18:06;;;;;;;5.40;2.00;;;14.80;86.40;;;;;;5046142;28;20037;-57
2021/05/10 02:20:32;;;;;;;2.60;1.40;;;14.80;86.80;;;;;;5045347;28;20067;-55
2021/05/10 02:23:04;;;;;;;6.25;1.55;;;14.70;87.30;;;;;;5029793;28;20036;-56
2021/05/10 02:25:33;;;;;;;3.53;1.30;;;14.60;88.30;;;;;;5045990;28;20056;-58
2021/05/10 02:27:59;;;;;;;4.72;1.73;;;14.60;87.50;;;;;;5046279;28;20033;-58
2021/05/10 02:30:27;;;;;;;11.20;1.35;;;14.70;87.50;;;;;;5036905;28;20043;-58
2021/05/10 02:32:53;;;;;;;8.98;1.33;;;14.70;86.90;;;;;;5026876;28;20076;-59
2021/05/10 02:35:21;;;;;;;7.32;1.65;;;14.70;88.40;;;;;;5025617;28;20099;-59
2021/05/10 02:37:47;;;;;;;8.25;1.85;;;14.70;88.90;;;;;;5026328;28;20116;-54
2021/05/10 02:40:13;;;;;;;;;;;14.70;88.30;;;;;;5025966;28;20109;-56
2021/05/10 02:42:39;;;;;;;3.80;1.38;;;14.70;88.70;;;;;;5026193;28;20456;-56
2021/05/10 02:45:06;;;;;;;3.75;1.60;;;14.70;88.70;;;;;;5026316;28;20080;-56
2021/05/10 02:47:32;;;;;;;6.72;1.25;;;14.70;89.10;;;;;;5036344;28;20633;-55
2021/05/10 02:49:58;;;;;;;;;;;14.70;88.40;;;;;;5046139;28;20044;-57
2021/05/10 02:52:23;;;;;;;6.05;1.30;;;14.70;88.70;;;;;;5027728;28;19962;-59
2021/05/10 02:54:49;;;;;;;;;;;14.70;87.30;;;;;;5025643;28;20053;-58
2021/05/10 02:57:15;;;;;;;5.00;1.50;;;14.70;88.00;;;;;;5035690;28;20023;-58
2021/05/10 02:59:42;;;;;;;3.28;1.60;;;14.70;88.80;;;;;;5027510;28;20120;-59
2021/05/10 03:02:07;;;;;;;5.20;1.67;;;14.70;90.00;;;;;;5044747;28;20128;-56
2021/05/10 03:04:33;;;;;;;;;;;14.60;90.00;;;;;;5043986;28;20128;-56
2021/05/10 03:06:59;;;;;;;4.68;1.63;;;14.50;90.10;;;;;;5044638;28;19925;-56
2021/05/10 03:09:24;;;;;;;;;;;14.50;90.20;;;;;;5045759;28;20094;-55
2021/05/10 03:11:50;;;;;;;5.38;1.40;;;14.50;90.80;;;;;;5044884;28;19920;-58
2021/05/10 03:14:15;;;;;;;;;;;14.50;89.50;;;;;;5045264;28;20048;-56
2021/05/10 03:16:41;;;;;;;6.93;1.77;;;14.60;90.00;;;;;;5045086;28;20361;-56
2021/05/10 03:19:10;;;;;;;;;;;14.60;88.80;;;;;;5046333;28;20066;-58
2021/05/10 03:21:39;;;;;;;3.45;1.42;;;14.70;88.10;;;;;;5044326;28;19990;-59
2021/05/10 03:24:06;;;;;;;4.25;1.42;;;14.80;87.60;;;;;;5039546;28;20037;-58
2021/05/10 03:26:37;;;;;;;3.33;1.27;;;14.70;89.30;;;;;;5037715;28;20052;-57
2021/05/10 03:29:04;;;;;;;3.25;1.70;;;14.80;87.00;;;;;;5033392;28;20037;-52
2021/05/10 03:31:30;;;;;;;6.63;1.85;;;15.10;85.50;;;;;;5024427;28;20038;-55
2021/05/10 03:33:56;;;;;;;2.47;1.38;;;15.10;86.50;;;;;;5024720;28;20057;-55
2021/05/10 03:36:22;;;;;;;;;;;15.00;88.50;;;;;;5026241;28;20041;-58
2021/05/10 03:38:47;;;;;;;3.10;1.55;;;14.90;87.00;;;;;;5038947;28;19924;-58
2021/05/10 03:41:13;;;;;;;;;;;15.00;86.30;;;;;;5031552;28;20045;-57
2021/05/10 03:43:39;;;;;;;4.45;1.95;;;15.00;87.30;;;;;;5026049;28;19924;-52
2021/05/10 03:46:04;;;;;;;;;;;15.00;89.90;;;;;;5024282;28;20136;-58
2021/05/10 03:48:29;;;;;;;15.40;1.60;;;14.90;90.70;;;;;;5026055;28;20373;-55
2021/05/10 03:50:55;;;;;;;;;;;14.90;89.60;;;;;;5030806;28;20040;-61
2021/05/10 03:53:21;;;;;;;6.45;1.70;;;14.90;90.90;;;;;;5047647;28;19943;-57
2021/05/10 03:55:46;;;;;;;;;;;14.80;91.00;;;;;;5049336;28;20045;-58
2021/05/10 03:58:12;;;;;;;7.88;1.48;;;14.80;89.10;;;;;;5042228;28;19921;-56
2021/05/10 04:00:38;;;;;;;;;;;14.90;90.00;;;;;;5045773;28;20029;-59
2021/05/10 04:03:05;;;;;;;3.13;1.50;;;14.90;89.40;;;;;;5048808;28;19923;-59
2021/05/10 04:11:02;;;;;;;5.47;1.77;;;14.70;91.20;;;;;;5008829;28;20057;-55
2021/05/10 04:15:59;;;;;;;8.77;1.90;;;14.60;91.70;;;;;;5046937;28;20048;-58
2021/05/10 04:18:25;;;;;;;;;;;14.60;92.00;;;;;;5049987;28;20036;-57
2021/05/10 04:20:51;;;;;;;2.95;1.67;;;14.60;92.10;;;;;;5043222;28;19916;-56
2021/05/10 04:23:17;;;;;;;;;;;14.60;91.70;;;;;;5036649;28;20037;-57
2021/05/10 04:25:47;;;;;;;3.63;1.17;;;14.70;91.30;;;;;;5047431;28;20218;-64
2021/05/10 04:28:13;;;;;;;4.38;1.60;;;14.80;91.40;;;;;;5036174;28;20616;-58
2021/05/10 04:30:40;;;;;;;3.55;1.88;;;14.80;91.60;;;;;;5047174;28;20036;-58
2021/05/10 04:33:05;;;;;;;4.47;1.67;;;14.80;91.40;;;;;;5048267;28;20075;-57
2021/05/10 04:35:32;;;;;;;;;;;14.80;91.40;;;;;;5048837;28;20082;-57
2021/05/10 04:37:59;;;;;;;10.00;1.77;;;14.80;91.20;;;;;;5049410;28;19921;-58
2021/05/10 04:40:24;;;;;;;3.30;1.40;;;14.80;91.20;;;;;;5047912;28;20045;-58
2021/05/10 04:42:50;;;;;;;;;;;15.00;90.80;;;;;;5045922;28;20793;-58
2021/05/10 04:45:16;;;;;;;6.35;1.40;;;15.10;90.70;;;;;;5041988;28;19959;-57
2021/05/10 04:47:42;;;;;;;;;;;15.10;90.50;;;;;;5029751;28;20025;-58
2021/05/10 04:50:11;;;;;;;16.58;1.40;;;15.30;90.60;;;;;;5046418;28;20304;-56
2021/05/10 04:52:38;;;;;;;6.15;1.42;;;15.30;91.00;;;;;;5043823;28;20049;-58
2021/05/10 04:55:06;;;;;;;11.23;1.80;;;15.40;90.30;;;;;;5045999;28;20397;-59
2021/05/10 04:57:32;;;;;;;10.20;1.85;;;15.40;91.70;;;;;;5046596;28;20061;-55
2021/05/10 04:59:58;;;;;;;;;;;15.80;90.20;;;;;;5046304;28;20033;-57
2021/05/10 05:02:24;;;;;;;5.93;1.35;;;16.00;90.20;;;;;;5046897;28;19924;-58
2021/05/10 05:04:49;;;;;;;6.07;1.73;;;16.00;90.20;;;;;;5028253;28;20060;-58
2021/05/10 05:07:15;;;;;;;;;;;16.90;86.80;;;;;;5047938;28;20041;-59
2021/05/10 05:09:41;;;;;;;2.42;1.40;;;16.90;87.00;;;;;;5047271;28;19917;-59
2021/05/10 05:12:06;;;;;;;;;;;16.80;87.50;;;;;;5047585;28;20456;-58
2021/05/10 05:14:32;;;;;;;5.47;1.85;;;16.70;87.20;;;;;;5047097;28;20407;-57
2021/05/10 05:16:57;;;;;;;;;;;16.70;86.30;;;;;;5047872;28;20170;-59
2021/05/10 05:19:23;;;;;;;7.30;1.33;;;16.80;81.80;;;;;;5048056;28;19924;-59
2021/05/10 05:21:50;;;;;;;;;;;16.90;80.50;;;;;;5047097;28;20204;-60
2021/05/10 05:24:16;;;;;;;;;;;17.00;80.30;;;;;;5046442;28;19921;-60
2021/05/10 05:26:41;;;;;;;6.00;1.77;;;16.90;82.60;;;;;;5046561;28;19921;-61
2021/05/10 05:29:07;;;;;;;;;;;16.90;82.70;;;;;;5044524;28;20037;-60
2021/05/10 05:31:32;;;;;;;5.22;1.60;;;17.00;82.30;;;;;;5046327;28;19924;-59
2021/05/10 05:33:58;;;;;;;;;;;17.00;81.70;;;;;;5046767;28;20028;-59
2021/05/10 05:36:24;;;;;;;4.57;1.40;;;17.00;79.30;;;;;;5029312;28;20487;-61
2021/05/10 05:38:49;;;;;;;;;;;17.20;78.70;;;;;;5047976;28;20036;-58
2021/05/10 05:41:15;;;;;;;2.45;1.10;;;17.20;79.70;;;;;;5028018;28;19962;-58
2021/05/10 05:43:40;;;;;;;;;;;17.30;79.30;;;;;;5046585;28;20544;-58
2021/05/10 05:46:19;;;;;;;6.53;2.03;;;17.30;79.00;;;;;;5045249;28;20000;-53
2021/05/10 05:48:45;;;;;;;4.15;2.00;;;17.30;79.00;;;;;;5047135;28;20063;-57
2021/05/10 05:51:11;;;;;;;;;;;17.30;78.80;;;;;;5039737;28;20033;-55
2021/05/10 05:53:37;;;;;;;7.55;2.08;;;17.30;79.10;;;;;;5026791;28;19970;-55
2021/05/10 05:56:02;;;;;;;5.30;1.90;;;17.30;79.40;;;;;;5026475;28;20045;-57
2021/05/10 05:58:28;;;;;;;;;;;17.30;80.50;;;;;;5046344;28;20452;-54
2021/05/10 06:00:54;;;;;;;3.78;1.58;;;17.40;83.10;;;;;;5024891;28;19913;-59
2021/05/10 06:03:20;;;;;;;;;;;17.40;81.80;;;;;;5027516;28;20569;-57
2021/05/10 06:05:46;;;;;;;4.07;1.40;;;17.40;82.40;;;;;;5026192;28;19967;-59
2021/05/10 06:08:13;;;;;;;;;;;17.40;80.50;;;;;;5027381;28;20049;-58
2021/05/10 06:10:38;;;;;;;1.73;1.27;;;17.60;80.20;;;;;;5025180;28;19917;-54
2021/05/10 06:13:04;;;;;;;;;;;17.80;80.80;;;;;;5027050;28;20080;-52
2021/05/10 06:15:30;;;;;;;3.30;1.45;;;17.90;79.10;;;;;;5041272;28;20363;-55
2021/05/10 06:17:55;;;;;;;;;;;18.00;79.10;;;;;;5037406;28;20040;-54
2021/05/10 06:20:24;;;;;;;4.78;1.20;;;18.00;77.30;;;;;;5045118;28;20647;-55
2021/05/10 06:22:50;;;;;;;2.83;1.45;;;18.00;79.00;;;;;;5045349;28;20206;-56
2021/05/10 06:25:15;;;;;;;;;;;18.10;77.70;;;;;;5028501;28;20127;-60
2021/05/10 06:27:42;;;;;;;4.40;1.60;;;18.20;79.60;;;;;;5044387;28;20032;-59
2021/05/10 06:30:09;;;;;;;5.05;1.38;;;18.40;77.50;;;;;;5043888;28;20056;-59
2021/05/10 06:32:36;;;;;;;1.90;1.40;;;18.50;77.90;;;;;;5044946;28;20052;-59
2021/05/10 06:35:02;;;;;;;7.93;1.83;;;18.50;77.60;;;;;;5045375;28;20575;-58
2021/05/10 06:37:30;;;;;;;6.15;1.38;;;18.50;77.00;;;;;;5045856;28;20041;-56
2021/05/10 06:39:57;;;;;;;7.47;1.40;;;18.40;78.30;;;;;;5044302;28;20147;-58
2021/05/10 06:42:23;;;;;;;3.90;1.38;;;18.30;78.80;;;;;;5030760;28;20037;-57
2021/05/10 06:44:49;;;;;;;;;;;18.30;78.10;;;;;;5025698;28;20034;-55
2021/05/10 06:47:15;;;;;;;4.30;1.50;;;18.30;79.10;;;;;;5025664;28;20381;-57
2021/05/10 06:49:40;;;;;;;10.10;1.50;;;18.40;79.40;;;;;;5025561;28;20041;-56
2021/05/10 06:52:06;;;;;;;;;;;18.50;78.40;;;;;;5040977;28;20051;-56
2021/05/10 06:54:31;;;;;;;4.00;1.30;;;18.40;78.10;;;;;;5044790;28;19921;-57
2021/05/10 06:56:57;;;;;;;;;;;18.40;78.40;;;;;;5045147;28;20108;-58
2021/05/10 06:59:22;;;;;;;5.55;1.50;;;18.40;79.40;;;;;;5036634;28;19916;-56
2021/05/10 07:01:48;;;;;;;;;;;18.40;79.40;;;;;;5044064;28;20148;-58
2021/05/10 07:04:13;;;;;;;4.70;1.60;;;18.70;79.60;;;;;;5044047;28;19917;-58
2021/05/10 07:06:41;;;;;;;10.68;1.83;;;18.90;77.40;;;;;;5045122;28;20041;-59
2021/05/10 07:09:07;;;;;;;5.30;2.40;;;19.30;77.30;;;;;;5044145;28;20642;-57
2021/05/10 07:11:33;;;;;;;;;;;19.30;77.70;;;;;;5044134;28;20041;-55
2021/05/10 07:13:59;;;;;;;4.25;1.50;;;19.50;76.90;;;;;;5044432;28;19917;-58
2021/05/10 07:16:25;;;;;;;4.40;1.33;;;19.40;76.00;;;;;;5044625;28;20098;-58
2021/05/10 07:18:50;;;;;;;;;;;19.30;76.50;;;;;;5045317;28;20041;-53
2021/05/10 07:21:16;;;;;;;3.35;1.40;;;19.10;75.40;;;;;;5037706;28;19932;-55
2021/05/10 07:23:42;;;;;;;5.28;1.70;;;19.20;75.80;;;;;;5042652;28;20037;-55
2021/05/10 07:26:07;;;;;;;;;;;19.30;75.70;;;;;;5045168;28;20463;-57
2021/05/10 07:28:33;;;;;;;3.47;1.52;;;19.30;75.10;;;;;;5038476;28;19927;-57
2021/05/10 07:30:59;;;;;;;7.72;1.50;;;19.30;74.90;;;;;;5048249;28;20503;-58
2021/05/10 07:33:24;;;;;;;;;;;19.30;76.20;;;;;;5042587;28;20041;-58
2021/05/10 07:35:50;;;;;;;4.50;1.77;;;19.20;75.80;;;;;;5046533;28;19955;-58
2021/05/10 07:38:16;;;;;;;9.13;2.15;;;19.00;75.10;;;;;;5039185;28;20100;-57
2021/05/10 07:40:41;;;;;;;;;;;18.80;76.20;;;;;;5045703;28;20112;-56
2021/05/10 07:43:07;;;;;;;8.30;1.60;;;19.10;76.70;;;;;;5047097;28;20677;-57
2021/05/10 07:45:33;;;;;;;;;;;19.40;74.30;;;;;;5045449;28;20469;-58
2021/05/10 07:48:00;;;;;;;3.58;1.55;;;19.30;74.30;;;;;;5047114;28;19921;-59
2021/05/10 07:50:26;;;;;;;2.40;1.20;;;19.40;75.50;;;;;;5045838;28;20608;-57
2021/05/10 07:52:52;;;;;;;6.15;1.52;;;19.50;73.40;;;;;;5047254;28;20056;-58
2021/05/10 07:55:18;;;;;;;;;;;19.50;74.00;;;;;;5047437;28;20044;-56
2021/05/10 07:57:45;;;;;;;6.10;1.70;;;19.80;74.30;;;;;;5046140;28;19921;-57
2021/05/10 08:00:16;;;;;;;3.45;1.10;;;21.00;69.50;;;;;;5047499;28;20079;-56
2021/05/10 08:02:43;;;;;;;3.05;1.25;;;22.80;62.50;;;;;;5039074;28;20036;-59
2021/05/10 08:05:10;;;;;;;6.25;1.27;;;24.20;59.10;;;;;;5048454;28;20079;-61
2021/05/10 08:07:36;;;;;;;2.78;0.93;;;25.30;54.60;;;;;;5048917;28;20049;-60
2021/05/10 08:10:02;;;;;;;2.38;1.10;;;26.00;52.70;;;;;;5048027;28;20089;-60
2021/05/10 08:12:28;;;;;;;4.97;1.33;;;26.20;52.50;;;;;;5048124;28;20511;-60
2021/05/10 08:14:53;;;;;;;5.93;1.40;;;26.90;50.10;;;;;;5050232;28;20037;-60
2021/05/10 08:17:21;;;;;;;5.15;1.08;;;27.50;49.90;;;;;;5048892;28;20626;-60
2021/05/10 08:19:46;;;;;;;2.50;0.88;;;28.60;48.60;;;;;;5047947;28;20071;-60
2021/05/10 08:22:12;;;;;;;2.22;0.88;;;27.70;47.10;;;;;;5048824;28;20473;-61
2021/05/10 08:24:38;;;;;;;6.15;1.15;;;27.10;48.30;;;;;;5049417;28;20155;-60
2021/05/10 08:27:03;;;;;;;12.23;1.20;;;27.70;48.20;;;;;;5048630;28;20566;-60
2021/05/10 08:29:29;;;;;;;4.97;0.98;;;28.30;47.50;;;;;;5041784;28;20143;-62
2021/05/10 08:31:56;;;;;;;4.80;1.10;;;28.50;44.30;;;;;;5027616;28;20045;-60
2021/05/10 08:34:22;;;;;;;6.53;1.30;;;28.40;44.80;;;;;;5027830;28;20052;-60
2021/05/10 08:36:48;;;;;;;5.05;1.40;;;28.40;46.80;;;;;;5028599;28;20053;-60
2021/05/10 08:39:13;;;;;;;5.63;1.25;;;28.50;45.80;;;;;;5028082;28;21065;-60
2021/05/10 08:41:40;;;;;;;4.55;1.13;;;28.70;44.00;;;;;;5028668;28;20041;-60
2021/05/10 08:44:08;;;;;;;2.30;1.10;;;28.40;45.00;;;;;;5026540;28;20053;-59
2021/05/10 08:46:37;;;;;;;3.97;1.08;;;28.10;47.20;;;;;;5028138;28;20501;-60
2021/05/10 08:49:03;;;;;;;4.40;1.30;;;27.20;47.30;;;;;;5041454;28;20095;-60
2021/05/10 08:51:30;;;;;;;2.78;1.55;;;26.20;48.80;;;;;;5040806;28;20599;-59
2021/05/10 08:53:56;;;;;;;3.80;1.90;;;24.80;51.70;;;;;;5046446;28;20052;-58
2021/05/10 08:56:22;;;;;;;5.13;1.75;;;24.30;54.20;;;;;;5045851;28;20095;-60
2021/05/10 08:58:48;;;;;;;8.45;1.70;;;24.00;56.40;;;;;;5038417;28;20441;-59
2021/05/10 09:01:15;;;;;;;9.07;1.90;;;23.70;55.40;;;;;;5046482;28;20037;-59
2021/05/10 09:03:45;;;;;;;3.55;1.27;;;23.60;57.00;;;;;;5047130;28;20086;-59
2021/05/10 09:06:13;;;;;;;2.25;1.30;;;23.30;56.50;;;;;;5046318;28;20045;-60
2021/05/10 09:08:44;;;;;;;7.97;1.55;;;22.90;57.30;;;;;;5046468;28;20040;-60
2021/05/10 09:11:11;;;;;;;4.95;1.75;;;22.80;58.60;;;;;;5047095;28;20076;-59
2021/05/10 09:13:39;;;;;;;5.38;1.60;;;22.50;58.00;;;;;;5046661;28;20037;-57
2021/05/10 09:16:05;;;;;;;6.55;1.63;;;22.50;59.50;;;;;;5045720;28;20610;-59
2021/05/10 09:18:31;;;;;;;7.65;1.25;;;22.20;57.80;;;;;;5047615;28;20040;-59
2021/05/10 09:21:18;;;;;;;1.48;0.90;;;22.00;58.40;;;;;;5046687;28;20393;-59
2021/05/10 09:23:44;;;;;;;;;;;21.90;59.00;;;;;;5047242;28;20045;-58
2021/05/10 09:26:13;;;;;;;7.85;1.45;;;22.10;60.40;;;;;;5046855;28;19978;-58
2021/05/10 09:28:41;;;;;;;2.58;1.60;;;22.50;59.10;;;;;;5041965;28;20489;-61
2021/05/10 09:31:09;;;;;;;5.07;1.10;;;22.80;59.60;;;;;;5025642;28;20087;-59
2021/05/10 09:33:45;;;;;;;1.50;0.82;;;22.90;58.00;;;;;;5025529;28;20042;-59
2021/05/10 09:36:10;;;;;;;3.03;0.98;;;22.90;57.30;;;;;;5026146;28;20107;-59
2021/05/10 09:38:39;;;;;;;1.67;0.80;;;23.20;59.50;;;;;;5025885;28;20049;-59
2021/05/10 09:41:09;;;;;;;3.97;1.63;;;23.20;56.20;;;;;;5025542;28;20052;-60
2021/05/10 09:43:37;;;;;;;2.28;1.05;;;23.10;56.60;;;;;;5025983;28;20056;-59
2021/05/10 09:46:07;;;;;;;2.17;1.45;;;22.80;55.40;;;;;;5024956;28;20573;-60
2021/05/10 09:48:38;;;;;;;2.97;1.30;;;22.70;57.10;;;;;;5044034;28;20052;-59
2021/05/10 09:51:15;;;;;;;3.70;1.50;;;22.90;55.80;;;;;;5010071;28;20034;-60
2021/05/10 09:53:55;;;;;;;1.38;0.82;;;23.20;55.40;;;;;;5025942;28;20244;-60
2021/05/10 09:58:58;;;;;;;3.40;1.23;;;23.10;55.50;;;;;;5037273;28;20119;-59
2021/05/10 10:01:25;;;;;;;5.93;1.23;;;23.10;55.80;;;;;;5044185;28;20040;-58
2021/05/10 10:04:00;;;;;;;2.33;1.45;;;23.00;53.30;;;;;;5027343;28;20082;-59
2021/05/10 10:06:28;;;;;;;2.95;1.00;;;22.90;51.80;;;;;;5045479;28;20083;-58
2021/05/10 10:08:54;;;;;;;3.83;2.45;;;22.90;54.70;;;;;;5045385;28;20044;-59
2021/05/10 10:11:22;;;;;;;5.72;2.63;;;22.80;53.50;;;;;;5044654;28;20045;-59
2021/05/10 10:13:50;;;;;;;3.88;0.80;;;22.70;54.30;;;;;;5044886;28;20044;-59
2021/05/10 10:16:17;;;;;;;1.75;0.77;;;22.90;55.20;;;;;;5044848;28;20099;-59
2021/05/10 10:18:43;;;;;;;3.17;1.42;;;22.90;53.70;;;;;;5046444;28;20041;-59
2021/05/10 10:21:10;;;;;;;2.90;1.63;;;22.50;54.70;;;;;;5041717;28;20037;-60
2021/05/10 10:23:37;;;;;;;2.85;1.33;;;22.20;54.90;;;;;;5041827;28;20063;-60
2021/05/10 10:26:13;;;;;;;11.85;2.17;;;22.30;55.90;;;;;;5044489;28;20041;-60
2021/05/10 10:28:40;;;;;;;6.03;0.93;;;22.40;56.40;;;;;;5041105;28;20071;-59
2021/05/10 10:31:17;;;;;;;4.68;1.00;;;22.40;58.00;;;;;;5024049;28;20038;-59
2021/05/10 10:33:54;;;;;;;2.58;0.95;;;22.30;57.00;;;;;;5025868;28;20653;-59
2021/05/10 10:36:27;;;;;;;4.78;0.90;;;22.30;56.10;;;;;;5024480;28;20095;-59
2021/05/10 10:39:12;;;;;;;6.60;0.90;;;22.30;54.40;;;;;;5025806;28;20045;-59
2021/05/10 10:41:53;;;;;;;3.13;1.55;;;22.40;55.20;;;;;;5024451;28;20041;-60
2021/05/10 10:44:46;;;;;;;5.45;0.68;;;22.30;53.60;;;;;;5025060;28;20069;-61
2021/05/10 10:47:36;;;;;;;4.50;1.05;;;22.20;54.50;;;;;;5023272;28;20054;-60
2021/05/10 10:50:03;;;;;;;3.15;1.00;;;22.30;56.00;;;;;;5026456;28;20041;-59
2021/05/10 10:52:30;;;;;;;4.63;0.90;;;22.60;56.40;;;;;;5044380;28;20049;-60
2021/05/10 10:55:15;;;;;;;4.43;0.65;;;22.70;54.70;;;;;;5045393;28;20041;-59
2021/05/10 10:57:42;;;;;;;2.65;1.23;;;23.00;56.20;;;;;;5044376;28;20048;-60
2021/05/10 11:00:08;;;;;;;3.17;0.90;;;22.50;54.70;;;;;;5032881;28;20630;-60
2021/05/10 11:02:50;;;;;;;6.53;4.28;;;22.20;55.80;;;;;;5026053;28;20045;-61
2021/05/10 11:05:17;;;;;;;7.57;0.82;;;22.20;57.80;;;;;;5023614;28;20116;-60
2021/05/10 11:08:01;;;;;;;6.63;0.80;;;22.10;56.30;;;;;;5024095;28;20053;-58
2021/05/10 11:10:55;;;;;;;5.28;2.33;;;22.00;57.40;;;;;;5023982;28;20095;-60
2021/05/10 11:13:28;;;;;;;9.98;2.75;;;21.90;60.00;;;;;;5039278;28;20098;-60
2021/05/10 11:16:01;;;;;;;17.52;2.05;;;21.70;60.70;;;;;;5036874;28;20080;-62
2021/05/10 11:18:55;;;;;;;5.70;2.35;;;21.50;61.60;;;;;;5043540;28;20037;-60
2021/05/10 11:21:24;;;;;;;3.17;1.20;;;21.30;61.50;;;;;;5041702;28;20049;-60
2021/05/10 11:24:12;;;;;;;3.20;1.48;;;21.20;63.00;;;;;;5042827;28;20040;-63
2021/05/10 11:26:50;;;;;;;6.45;1.77;;;21.20;63.00;;;;;;5027634;28;20068;-58
2021/05/10 11:29:25;;;;;;;2.75;0.80;;;21.30;62.00;;;;;;5043345;28;20040;-59
2021/05/10 11:31:55;;;;;;;8.60;1.20;;;21.40;59.30;;;;;;5043049;28;20071;-58
2021/05/10 11:34:24;;;;;;;2.63;0.90;;;21.40;60.20;;;;;;5043195;28;20048;-60
2021/05/10 11:36:54;;;;;;;2.80;1.35;;;21.20;60.00;;;;;;5043549;28;20055;-60
2021/05/10 11:39:26;;;;;;;8.43;5.82;;;21.40;62.20;;;;;;5043459;28;20037;-59
2021/05/10 11:42:04;;;;;;;1.63;0.90;;;21.40;61.20;;;;;;5044515;28;20504;-60
2021/05/10 11:44:40;;;;;;;3.75;1.00;;;21.60;61.30;;;;;;5042937;28;20456;-58
2021/05/10 11:47:07;;;;;;;;;;;21.90;61.70;;;;;;5044853;28;20482;-60
2021/05/10 11:49:43;;;;;;;0.70;0.57;;;22.10;60.80;;;;;;5043167;28;19916;-63
2021/05/10 11:52:16;;;;;;;2.30;0.73;;;22.30;59.40;;;;;;5028299;28;20045;-60
2021/05/10 11:54:46;;;;;;;2.80;0.75;;;22.40;59.10;;;;;;5024911;28;20046;-60
2021/05/10 11:57:13;;;;;;;2.60;0.90;;;22.50;59.60;;;;;;5030729;28;20185;-62
2021/05/10 11:59:48;;;;;;;1.17;0.40;;;22.40;56.90;;;;;;5032495;28;20099;-61
2021/05/10 12:02:18;;;;;;;0.75;0.50;;;22.40;56.90;;;;;;5029070;28;20033;-59
2021/05/10 12:04:55;;;;;;;5.85;0.55;;;22.20;55.80;;;;;;5031529;28;20049;-59
2021/05/10 12:07:22;;;;;;;2.75;1.05;;;22.30;55.60;;;;;;5038461;28;20038;-60
2021/05/10 12:09:49;;;;;;;4.47;0.70;;;22.40;55.30;;;;;;5041052;28;20088;-60
2021/05/10 12:12:18;;;;;;;3.33;0.70;;;22.60;55.80;;;;;;5040600;28;20099;-60
2021/05/10 12:14:52;;;;;;;3.45;1.40;;;22.40;54.30;;;;;;5035324;28;20441;-60
2021/05/10 12:17:23;;;;;;;2.80;0.52;;;22.30;55.90;;;;;;5044170;28;20064;-60
2021/05/10 12:19:55;;;;;;;0.65;0.40;;;22.10;55.80;;;;;;5042828;28;20639;-59
2021/05/10 12:22:23;;;;;;;2.22;0.70;;;21.90;57.60;;;;;;5038580;28;20073;-60
2021/05/10 12:25:01;;;;;;;9.77;1.10;;;21.90;56.80;;;;;;5046178;28;20041;-60
2021/05/10 12:27:52;;;;;;;3.75;1.00;;;22.10;59.20;;;;;;5047300;28;20049;-61
2021/05/10 12:30:24;;;;;;;4.25;0.70;;;22.20;56.70;;;;;;5029530;28;20140;-59
2021/05/10 12:32:54;;;;;;;1.88;0.70;;;22.20;57.30;;;;;;5047449;28;20033;-57
2021/05/10 12:35:26;;;;;;;3.25;0.82;;;22.30;59.10;;;;;;5046925;28;20641;-58
2021/05/10 12:37:54;;;;;;;5.25;1.08;;;22.20;55.90;;;;;;5044845;28;20053;-60
2021/05/10 12:40:28;;;;;;;4.07;0.88;;;21.90;57.00;;;;;;5041199;28;20048;-60
2021/05/10 12:43:14;;;;;;;1.92;0.90;;;21.60;57.60;;;;;;5047645;28;20059;-61
2021/05/10 12:46:04;;;;;;;3.88;0.90;;;21.30;58.90;;;;;;5045318;28;20183;-61
2021/05/10 12:48:35;;;;;;;2.08;0.77;;;21.30;61.20;;;;;;5044605;28;20044;-60
2021/05/10 12:51:04;;;;;;;3.10;1.10;;;21.20;62.20;;;;;;5035930;28;20501;-58
2021/05/10 12:53:47;;;;;;;6.25;0.93;;;21.10;63.60;;;;;;5040586;28;20120;-62
2021/05/10 12:56:14;;;;;;;13.80;1.90;;;20.90;64.00;;;;;;5045209;28;20036;-62
2021/05/10 12:58:41;;;;;;;6.88;1.27;;;20.90;65.00;;;;;;5029897;28;20136;-60
2021/05/10 13:01:12;;;;;;;5.07;1.60;;;21.00;66.10;;;;;;5032717;28;20072;-57
2021/05/10 13:03:38;;;;;;;3.60;0.98;;;21.00;64.10;;;;;;5043701;28;20041;-60
2021/05/10 13:06:03;;;;;;;;;;;20.90;64.60;;;;;;5046331;28;20588;-59
2021/05/10 13:08:40;;;;;;;4.03;1.30;;;20.90;64.80;;;;;;5046806;28;19971;-60
2021/05/10 13:11:08;;;;;;;2.42;1.15;;;21.00;64.30;;;;;;5046827;28;20053;-60
2021/05/10 13:13:40;;;;;;;2.13;0.73;;;20.90;63.80;;;;;;5062034;22;20068;-60
2021/05/10 13:16:21;;;;;;;3.72;1.15;;;20.80;64.10;;;;;;5036398;28;20222;-60
2021/05/10 13:19:07;;;;;;;2.85;0.93;;;20.80;65.20;;;;;;5055833;28;20048;-61
2021/05/10 13:21:59;;;;;;;5.18;0.80;;;20.80;64.80;;;;;;5028929;28;20056;-58